createdAt,value
2018-04-25T00:00:46.611Z,9.93
2018-04-25T00:03:16.692Z,11.67
2018-04-25T00:05:46.019Z,7.57
2018-04-25T00:08:15.346Z,7.87
2018-04-25T00:10:45.424Z,7.57
2018-04-25T00:13:14.745Z,7.30
2018-04-25T00:15:44.073Z,8.20
2018-04-25T00:18:14.154Z,7.20
2018-04-25T00:20:43.501Z,9.83
2018-04-25T00:23:13.574Z,7.37
2018-04-25T00:25:42.869Z,8.00
2018-04-25T00:28:12.212Z,9.83
2018-04-25T00:30:42.273Z,11.30
2018-04-25T00:33:11.578Z,7.30
2018-04-25T00:35:40.911Z,6.13
2018-04-25T00:38:10.232Z,8.70
2018-04-25T00:40:39.530Z,7.73
2018-04-25T00:43:08.864Z,6.50
2018-04-25T00:45:38.979Z,5.53
2018-04-25T00:48:08.258Z,8.47
2018-04-25T00:50:37.567Z,9.23
2018-04-25T00:53:07.634Z,7.07
2018-04-25T00:55:36.955Z,5.30
2018-04-25T00:58:06.298Z,9.37
2018-04-25T01:00:36.367Z,8.03
2018-04-25T01:03:05.711Z,6.23
2018-04-25T01:05:35.021Z,8.27
2018-04-25T01:08:04.903Z,6.57
2018-04-25T01:10:34.233Z,5.47
2018-04-25T01:13:03.536Z,6.63
2018-04-25T01:15:33.431Z,5.53
2018-04-25T01:18:02.759Z,7.20
2018-04-25T01:20:32.852Z,8.77
2018-04-25T01:23:15.593Z,8.60
2018-04-25T01:25:45.681Z,7.20
2018-04-25T01:28:18.424Z,7.70
2018-04-25T01:31:10.859Z,7.17
2018-04-25T01:33:56.857Z,6.63
2018-04-25T01:36:36.549Z,7.90
2018-04-25T01:42:48.903Z,6.07
2018-04-25T01:45:29.896Z,4.93
2018-04-25T01:48:07.418Z,5.10
2018-04-25T01:50:37.812Z,6.70
2018-04-25T01:53:24.800Z,5.23
2018-04-25T01:56:12.387Z,4.73
2018-04-25T01:58:59.811Z,6.03
2018-04-25T02:01:28.608Z,6.97
2018-04-25T02:04:00.765Z,5.97
2018-04-25T02:06:30.868Z,6.33
2018-04-25T02:09:00.963Z,6.03
2018-04-25T02:11:30.301Z,5.20
2018-04-25T02:13:59.603Z,4.90
2018-04-25T02:16:29.722Z,4.97
2018-04-25T02:18:59.019Z,6.33
2018-04-25T02:21:29.106Z,6.27
2018-04-25T02:23:58.455Z,4.30
2018-04-25T02:26:28.523Z,5.90
2018-04-25T02:28:57.866Z,4.73
2018-04-25T02:31:27.173Z,4.70
2018-04-25T02:33:57.256Z,5.67
2018-04-25T02:36:26.570Z,5.80
2018-04-25T02:38:55.891Z,5.87
2018-04-25T02:41:25.419Z,7.17
2018-04-25T02:43:55.483Z,6.33
2018-04-25T02:46:24.816Z,5.03
2018-04-25T02:48:54.350Z,6.03
2018-04-25T02:51:24.445Z,8.47
2018-04-25T02:53:53.757Z,7.50
2018-04-25T02:56:23.853Z,7.13
2018-04-25T02:58:53.437Z,5.70
2018-04-25T03:01:22.754Z,8.63
2018-04-25T03:03:52.075Z,8.03
2018-04-25T03:06:21.415Z,6.27
2018-04-25T03:08:50.736Z,6.67
2018-04-25T03:11:20.033Z,7.70
2018-04-25T03:13:49.351Z,5.70
2018-04-25T03:16:18.687Z,5.40
2018-04-25T03:18:47.987Z,6.37
2018-04-25T03:21:17.316Z,7.37
2018-04-25T03:23:47.391Z,6.00
2018-04-25T03:26:16.729Z,8.67
2018-04-25T03:28:46.049Z,6.00
2018-04-25T03:31:16.151Z,7.83
2018-04-25T03:33:46.247Z,6.67
2018-04-25T03:36:15.585Z,8.27
2018-04-25T03:38:45.663Z,9.00
2018-04-25T03:41:15.019Z,8.13
2018-04-25T03:43:45.104Z,6.93
2018-04-25T03:46:14.405Z,8.43
2018-04-25T03:48:43.724Z,9.23
2018-04-25T03:51:13.047Z,7.13
2018-04-25T03:53:42.356Z,7.57
2018-04-25T03:56:11.683Z,7.23
2018-04-25T03:58:41.007Z,9.63
2018-04-25T04:01:10.327Z,9.67
2018-04-25T04:03:39.684Z,7.33
2018-04-25T04:06:08.987Z,8.13
2018-04-25T04:08:38.293Z,8.67
2018-04-25T04:11:07.637Z,10.33
2018-04-25T04:13:37.049Z,10.63
2018-04-25T04:16:06.347Z,7.97
2018-04-25T04:18:35.695Z,10.97
2018-04-25T04:21:05.033Z,8.07
2018-04-25T04:23:34.367Z,9.97
2018-04-25T04:26:04.484Z,10.23
2018-04-25T04:28:33.798Z,7.90
2018-04-25T04:31:03.901Z,7.90
2018-04-25T04:33:33.252Z,10.63
2018-04-25T04:36:02.572Z,7.43
2018-04-25T04:38:31.908Z,9.40
2018-04-25T04:41:01.811Z,8.57
2018-04-25T04:43:31.183Z,8.10
2018-04-25T04:46:00.465Z,8.33
2018-04-25T04:48:29.763Z,9.10
2018-04-25T04:50:59.097Z,6.73
2018-04-25T04:53:28.402Z,7.07
2018-04-25T04:55:57.697Z,7.83
2018-04-25T04:58:27.014Z,5.70
2018-04-25T05:00:56.335Z,5.97
2018-04-25T05:03:26.545Z,10.97
2018-04-25T05:05:56.618Z,6.60
2018-04-25T05:08:26.028Z,8.13
2018-04-25T05:10:55.242Z,5.63
2018-04-25T05:13:25.463Z,6.40
2018-04-25T05:15:54.758Z,6.00
2018-04-25T05:18:24.089Z,6.40
2018-04-25T05:20:53.637Z,3.80
2018-04-25T05:23:22.944Z,3.80
2018-04-25T05:25:53.052Z,4.87
2018-04-25T05:28:22.366Z,3.53
2018-04-25T05:30:52.958Z,5.03
2018-04-25T05:33:23.294Z,5.27
2018-04-25T05:35:52.667Z,3.83
2018-04-25T05:38:22.600Z,5.47
2018-04-25T05:40:51.917Z,5.87
2018-04-25T05:43:21.222Z,5.77
2018-04-25T05:45:50.558Z,4.63
2018-04-25T05:48:21.237Z,8.33
2018-04-25T05:50:50.667Z,4.80
2018-04-25T05:53:19.973Z,4.97
2018-04-25T05:55:49.302Z,4.50
2018-04-25T05:58:19.370Z,4.87
2018-04-25T06:00:48.677Z,5.13
2018-04-25T06:03:17.992Z,8.47
2018-04-25T06:05:47.342Z,5.77
2018-04-25T06:08:16.667Z,8.30
2018-04-25T06:10:45.991Z,5.40
2018-04-25T06:13:15.298Z,5.97
2018-04-25T06:15:44.638Z,7.23
2018-04-25T06:18:14.742Z,6.13
2018-04-25T06:20:44.222Z,6.40
2018-04-25T06:23:13.534Z,6.07
2018-04-25T06:25:42.863Z,6.03
2018-04-25T06:28:12.983Z,6.87
2018-04-25T06:30:42.257Z,7.10
2018-04-25T06:33:11.588Z,7.10
2018-04-25T06:35:40.891Z,5.43
2018-04-25T06:38:10.977Z,3.87
2018-04-25T06:40:40.280Z,3.50
2018-04-25T06:43:09.617Z,3.33
2018-04-25T06:45:39.705Z,3.60
2018-04-25T06:48:09.020Z,3.70
2018-04-25T06:50:38.426Z,4.47
2018-04-25T06:53:07.758Z,4.90
2018-04-25T06:55:37.865Z,4.60
2018-04-25T06:58:07.167Z,5.13
2018-04-25T07:00:37.272Z,5.20
2018-04-25T07:03:06.610Z,5.10
2018-04-25T07:05:36.765Z,5.37
2018-04-25T07:08:06.083Z,4.40
2018-04-25T07:10:35.413Z,3.83
2018-04-25T07:13:04.753Z,3.93
2018-04-25T07:15:34.046Z,3.93
2018-04-25T07:18:03.398Z,3.47
2018-04-25T07:20:32.720Z,3.93
2018-04-25T07:23:02.033Z,3.97
2018-04-25T07:25:32.126Z,5.57
2018-04-25T07:28:01.394Z,5.70
2018-04-25T07:30:30.765Z,5.10
2018-04-25T07:33:00.830Z,5.50
2018-04-25T07:35:30.180Z,5.97
2018-04-25T07:37:59.491Z,6.93
2018-04-25T07:40:28.792Z,6.33
2018-04-25T07:42:58.875Z,6.80
2018-04-25T07:45:28.175Z,6.03
2018-04-25T07:47:57.473Z,6.60
2018-04-25T07:50:27.718Z,6.03
2018-04-25T07:52:57.039Z,5.83
2018-04-25T07:55:27.122Z,6.40
2018-04-25T07:57:56.453Z,6.77
2018-04-25T08:00:25.767Z,7.07
2018-04-25T08:02:55.860Z,7.60
2018-04-25T08:05:25.159Z,7.03
2018-04-25T08:07:54.485Z,7.60
2018-04-25T08:10:23.807Z,6.97
2018-04-25T08:13:11.840Z,6.40
2018-04-25T08:15:59.618Z,6.23
2018-04-25T08:18:46.623Z,6.27
2018-04-25T08:21:33.899Z,5.97
2018-04-25T08:24:03.201Z,6.97
2018-04-25T08:26:32.537Z,7.17
2018-04-25T08:29:02.608Z,7.77
2018-04-25T08:31:31.928Z,8.97
2018-04-25T08:34:01.237Z,8.87
2018-04-25T08:36:30.569Z,10.23
2018-04-25T08:38:59.893Z,9.47
2018-04-25T08:41:29.223Z,11.13
2018-04-25T08:44:00.069Z,10.50
2018-04-25T08:46:29.409Z,10.53
2018-04-25T08:48:58.711Z,12.97
2018-04-25T08:51:28.024Z,10.80
2018-04-25T08:53:57.387Z,9.67
2018-04-25T08:56:28.397Z,10.50
2018-04-25T08:58:58.483Z,11.33
2018-04-25T09:01:27.783Z,9.90
2018-04-25T09:03:57.122Z,10.67
2018-04-25T09:06:26.432Z,10.93
2018-04-25T09:08:55.737Z,10.17
2018-04-25T09:11:25.060Z,8.87
2018-04-25T09:13:54.374Z,9.07
2018-04-25T09:16:24.489Z,8.07
2018-04-25T09:18:53.807Z,9.43
2018-04-25T09:21:23.897Z,6.63
2018-04-25T09:23:53.221Z,6.70
2018-04-25T09:26:23.307Z,5.83
2018-04-25T09:28:53.389Z,5.30
2018-04-25T09:31:22.683Z,4.63
2018-04-25T09:33:52.685Z,5.80
2018-04-25T09:36:22.769Z,4.73
2018-04-25T09:38:52.075Z,4.30
2018-04-25T09:41:21.401Z,5.27
2018-04-25T09:43:50.726Z,4.83
2018-04-25T09:46:20.062Z,4.17
2018-04-25T09:48:49.362Z,5.47
2018-04-25T09:51:18.678Z,4.40
2018-04-25T09:53:47.980Z,4.60
2018-04-25T09:56:17.287Z,4.50
2018-04-25T09:58:47.379Z,4.70
2018-04-25T10:01:22.374Z,5.83
2018-04-25T10:03:52.515Z,5.10
2018-04-25T10:06:21.786Z,5.20
2018-04-25T10:08:51.117Z,4.63
2018-04-25T10:11:21.194Z,4.33
2018-04-25T10:13:50.491Z,4.57
2018-04-25T10:16:19.820Z,3.90
2018-04-25T10:18:49.134Z,4.57
2018-04-25T10:21:19.200Z,3.50
2018-04-25T10:23:48.555Z,6.27
2018-04-25T10:26:17.858Z,3.40
2018-04-25T10:28:47.921Z,6.03
2018-04-25T10:31:17.227Z,5.77
2018-04-25T10:33:46.553Z,5.77
2018-04-25T10:36:15.865Z,5.70
2018-04-25T10:38:45.165Z,6.77
2018-04-25T10:41:14.492Z,5.87
2018-04-25T10:43:44.596Z,5.40
2018-04-25T10:46:13.893Z,5.00
2018-04-25T10:48:43.194Z,4.77
2018-04-25T10:51:12.518Z,4.83
2018-04-25T10:53:42.587Z,6.70
2018-04-25T10:56:11.903Z,6.60
2018-04-25T10:58:41.224Z,6.43
2018-04-25T11:01:10.526Z,5.30
2018-04-25T11:03:39.831Z,5.43
2018-04-25T11:06:09.155Z,5.27
2018-04-25T11:08:39.285Z,5.70
2018-04-25T11:11:08.529Z,6.37
2018-04-25T11:13:37.848Z,5.47
2018-04-25T11:16:07.154Z,4.60
2018-04-25T11:18:36.451Z,5.20
2018-04-25T11:21:05.783Z,6.63
2018-04-25T11:23:35.842Z,7.33
2018-04-25T11:26:05.143Z,4.77
2018-04-25T11:28:34.504Z,4.37
2018-04-25T11:31:04.599Z,3.87
2018-04-25T11:33:34.103Z,4.60
2018-04-25T11:36:03.408Z,4.57
2018-04-25T11:38:32.736Z,4.03
2018-04-25T11:41:02.820Z,4.53
2018-04-25T11:43:32.127Z,5.17
2018-04-25T11:46:01.431Z,4.23
2018-04-25T11:48:30.769Z,4.27
2018-04-25T11:51:00.826Z,5.37
2018-04-25T11:53:30.147Z,3.97
2018-04-25T11:55:59.484Z,3.97
2018-04-25T11:58:28.796Z,5.13
2018-04-25T12:00:58.873Z,4.87
2018-04-25T12:03:28.175Z,4.97
2018-04-25T12:05:57.498Z,5.90
2018-04-25T12:08:26.827Z,5.73
2018-04-25T12:10:56.937Z,5.70
2018-04-25T12:13:26.258Z,6.13
2018-04-25T12:15:56.359Z,5.90
2018-04-25T12:18:25.664Z,6.50
2018-04-25T12:20:55.734Z,6.40
2018-04-25T12:23:25.064Z,6.37
2018-04-25T12:25:54.424Z,6.50
2018-04-25T12:28:23.738Z,6.40
2018-04-25T12:30:53.057Z,6.73
2018-04-25T12:33:22.356Z,7.63
2018-04-25T12:35:52.513Z,7.17
2018-04-25T12:38:21.766Z,8.60
2018-04-25T12:40:51.082Z,7.17
2018-04-25T12:43:20.374Z,6.73
2018-04-25T12:45:49.707Z,6.77
2018-04-25T12:48:19.019Z,6.77
2018-04-25T12:50:48.322Z,8.03
2018-04-25T12:53:17.655Z,8.00
2018-04-25T12:55:46.961Z,7.13
2018-04-25T12:58:16.440Z,6.77
2018-04-25T13:00:45.750Z,6.63
2018-04-25T13:03:15.818Z,6.90
2018-04-25T13:05:45.135Z,6.77
2018-04-25T13:08:14.477Z,6.60
2018-04-25T13:10:44.554Z,7.80
2018-04-25T13:13:13.850Z,7.93
2018-04-25T13:15:43.180Z,7.10
2018-04-25T13:18:12.496Z,7.70
2018-04-25T13:20:42.574Z,6.03
2018-04-25T13:23:11.909Z,7.13
2018-04-25T13:25:41.203Z,5.60
2018-04-25T13:28:10.529Z,6.80
2018-04-25T13:30:40.595Z,6.63
2018-04-25T13:33:09.917Z,6.03
2018-04-25T13:35:39.257Z,5.67
2018-04-25T13:38:09.338Z,4.90
2018-04-25T13:40:38.639Z,5.13
2018-04-25T13:43:07.942Z,5.27
2018-04-25T13:45:37.284Z,6.07
2018-04-25T13:48:07.346Z,5.67
2018-04-25T13:50:36.683Z,4.60
2018-04-25T13:53:06.007Z,6.80
2018-04-25T13:55:36.077Z,4.90
2018-04-25T13:58:05.408Z,4.40
2018-04-25T14:00:34.723Z,4.20
2018-04-25T14:03:04.033Z,5.10
2018-04-25T14:05:34.126Z,5.50
2018-04-25T14:08:03.430Z,4.37
2018-04-25T14:10:32.741Z,6.13
2018-04-25T14:13:02.083Z,4.93
2018-04-25T14:15:32.138Z,4.80
2018-04-25T14:18:02.226Z,4.07
2018-04-25T14:20:31.535Z,4.40
2018-04-25T14:23:00.860Z,4.70
2018-04-25T14:25:30.172Z,4.63
2018-04-25T14:27:59.529Z,4.40
2018-04-25T14:30:29.652Z,5.13
2018-04-25T14:32:58.927Z,4.83
2018-04-25T14:35:28.247Z,4.10
2018-04-25T14:37:58.318Z,4.30
2018-04-25T14:40:28.399Z,3.90
2018-04-25T14:42:57.711Z,4.37
2018-04-25T14:45:27.056Z,3.77
2018-04-25T14:47:56.362Z,3.33
2018-04-25T14:50:25.666Z,5.23
2018-04-25T14:52:54.984Z,4.93
2018-04-25T14:55:25.056Z,4.30
2018-04-25T14:57:54.372Z,4.67
2018-04-25T15:00:24.446Z,3.77
2018-04-25T15:02:54.562Z,4.10
2018-04-25T15:05:24.646Z,3.13
2018-04-25T15:07:53.947Z,5.07
2018-04-25T15:10:23.285Z,3.77
2018-04-25T15:12:56.139Z,3.50
2018-04-25T15:15:25.436Z,4.60
2018-04-25T15:17:54.763Z,5.03
2018-04-25T15:20:24.839Z,4.47
2018-04-25T15:22:54.158Z,4.37
2018-04-25T15:25:23.529Z,3.50
2018-04-25T15:27:53.554Z,3.57
2018-04-25T15:30:22.879Z,2.90
2018-04-25T15:32:52.190Z,3.03
2018-04-25T15:35:21.520Z,2.90
2018-04-25T15:37:51.648Z,3.20
2018-04-25T15:40:21.718Z,3.33
2018-04-25T15:42:51.038Z,3.57
2018-04-25T15:45:20.365Z,3.77
2018-04-25T15:47:49.662Z,3.87
2018-04-25T15:50:19.001Z,2.87
2018-04-25T15:52:48.308Z,4.17
2018-04-25T15:55:17.608Z,5.20
2018-04-25T15:57:46.928Z,4.07
2018-04-25T16:00:16.285Z,7.80
2018-04-25T16:02:46.355Z,3.10
2018-04-25T16:05:15.855Z,3.87
2018-04-25T16:07:45.198Z,4.10
2018-04-25T16:10:14.509Z,3.77
2018-04-25T16:12:43.822Z,4.70
2018-04-25T16:15:13.918Z,5.43
2018-04-25T16:17:43.224Z,5.80
2018-04-25T16:20:12.561Z,4.63
2018-04-25T16:22:42.669Z,3.93
2018-04-25T16:25:11.976Z,6.07
2018-04-25T16:27:42.055Z,4.40
2018-04-25T16:30:11.363Z,3.87
2018-04-25T16:32:40.690Z,4.93
2018-04-25T16:35:10.771Z,6.27
2018-04-25T16:37:40.088Z,3.87
2018-04-25T16:40:09.418Z,4.23
2018-04-25T16:42:39.484Z,4.60
2018-04-25T16:45:08.832Z,8.53
2018-04-25T16:47:38.156Z,4.57
2018-04-25T16:50:08.218Z,5.30
2018-04-25T16:52:37.544Z,4.97
2018-04-25T16:55:06.852Z,4.93
2018-04-25T16:57:36.197Z,4.70
2018-04-25T17:00:05.490Z,4.53
2018-04-25T17:02:35.694Z,5.37
2018-04-25T17:05:05.030Z,5.10
2018-04-25T17:07:34.332Z,5.33
2018-04-25T17:10:04.333Z,5.97
2018-04-25T17:12:34.440Z,6.07
2018-04-25T17:15:04.008Z,6.13
2018-04-25T17:17:34.094Z,5.07
2018-04-25T17:20:03.565Z,5.87
2018-04-25T17:22:32.885Z,5.60
2018-04-25T17:25:03.137Z,5.07
2018-04-25T17:27:33.026Z,5.07
2018-04-25T17:30:03.147Z,3.10
2018-04-25T17:32:32.560Z,4.57
2018-04-25T17:35:02.781Z,4.33
2018-04-25T17:37:32.954Z,4.73
2018-04-25T17:40:02.258Z,3.67
2018-04-25T17:42:31.658Z,5.30
2018-04-25T17:45:00.982Z,3.43
2018-04-25T17:47:30.301Z,3.83
2018-04-25T17:49:59.776Z,3.73
2018-04-25T17:52:29.288Z,4.30
2018-04-25T17:54:58.582Z,4.10
2018-04-25T17:57:27.947Z,4.47
2018-04-25T17:59:57.218Z,3.57
2018-04-25T18:02:26.532Z,3.20
2018-04-25T18:04:56.633Z,4.93
2018-04-25T18:07:26.289Z,3.80
2018-04-25T18:09:55.584Z,3.33
2018-04-25T18:12:24.895Z,4.43
2018-04-25T18:14:54.439Z,4.23
2018-04-25T18:17:23.788Z,4.20
2018-04-25T18:19:53.856Z,3.20
2018-04-25T18:22:24.171Z,4.17
2018-04-25T18:24:53.458Z,4.10
2018-04-25T18:27:22.788Z,4.67
2018-04-25T18:29:52.085Z,3.30
2018-04-25T18:32:21.402Z,4.70
2018-04-25T18:34:50.836Z,3.13
2018-04-25T18:37:20.330Z,3.43
2018-04-25T18:39:49.638Z,4.73
2018-04-25T18:42:18.996Z,3.43
2018-04-25T18:44:48.308Z,4.17
2018-04-25T18:47:17.670Z,6.77
2018-04-25T18:49:46.987Z,4.17
2018-04-25T18:52:16.452Z,4.23
2018-04-25T18:54:45.819Z,4.63
2018-04-25T18:57:15.173Z,3.57
2018-04-25T18:59:45.247Z,3.87
2018-04-25T19:02:14.865Z,3.60
2018-04-25T19:04:44.169Z,4.20
2018-04-25T19:07:13.556Z,5.57
2018-04-25T19:09:42.842Z,4.20
2018-04-25T19:12:12.198Z,3.80
2018-04-25T19:14:41.483Z,5.00
2018-04-25T19:17:10.828Z,4.67
2018-04-25T19:19:40.180Z,4.13
2018-04-25T19:22:09.553Z,3.27
2018-04-25T19:24:38.875Z,4.10
2018-04-25T19:27:08.194Z,5.57
2018-04-25T19:29:37.514Z,4.07
2018-04-25T19:32:06.855Z,5.03
2018-04-25T19:34:36.158Z,6.47
2018-04-25T19:37:06.250Z,4.07
2018-04-25T19:39:36.322Z,5.60
2018-04-25T19:42:05.624Z,3.53
2018-04-25T19:44:34.975Z,5.73
2018-04-25T19:47:05.039Z,9.37
2018-04-25T19:49:34.377Z,7.17
2018-04-25T19:52:03.731Z,4.93
2018-04-25T19:54:33.044Z,4.23
2018-04-25T19:57:02.338Z,3.83
2018-04-25T19:59:31.658Z,4.60
2018-04-25T20:02:00.988Z,8.50
2018-04-25T20:04:30.313Z,6.63
2018-04-25T20:07:00.416Z,4.10
2018-04-25T20:09:29.740Z,4.80
2018-04-25T20:11:59.825Z,8.33
2018-04-25T20:14:29.186Z,6.70
2018-04-25T20:16:58.496Z,4.23
2018-04-25T20:19:27.816Z,5.90
2018-04-25T20:21:57.153Z,7.07
2018-04-25T20:24:26.457Z,7.00
2018-04-25T20:26:55.798Z,5.80
2018-04-25T20:29:25.138Z,5.63
2018-04-25T20:31:54.955Z,6.70
2018-04-25T20:34:24.346Z,6.90
2018-04-25T20:36:53.659Z,6.50
2018-04-25T20:39:23.005Z,8.87
2018-04-25T20:41:53.118Z,6.97
2018-04-25T20:44:22.513Z,8.27
2018-04-25T20:46:51.831Z,7.30
2018-04-25T20:49:21.915Z,12.00
2018-04-25T20:51:51.290Z,6.90
2018-04-25T20:54:22.969Z,7.07
2018-04-25T20:56:53.296Z,6.70
2018-04-25T20:59:23.325Z,7.17
2018-04-25T21:01:52.670Z,6.93
2018-04-25T21:04:22.740Z,6.37
2018-04-25T21:06:52.064Z,6.40
2018-04-25T21:09:21.442Z,8.33
2018-04-25T21:11:50.894Z,10.07
2018-04-25T21:14:21.014Z,9.40
2018-04-25T21:16:50.359Z,6.40
2018-04-25T21:19:19.729Z,7.30
2018-04-25T21:21:49.840Z,7.43
2018-04-25T21:24:19.934Z,6.20
2018-04-25T21:26:49.264Z,6.50
2018-04-25T21:29:18.587Z,8.03
2018-04-25T21:31:48.137Z,5.97
2018-04-25T21:34:17.431Z,8.57
2018-04-25T21:36:46.762Z,8.03
2018-04-25T21:39:16.058Z,6.50
2018-04-25T21:41:45.396Z,8.53
2018-04-25T21:44:15.484Z,7.17
2018-04-25T21:46:44.785Z,6.73
2018-04-25T21:49:14.131Z,9.97
2018-04-25T21:51:43.444Z,6.60
2018-04-25T21:54:12.762Z,7.20
2018-04-25T21:56:42.072Z,6.50
2018-04-25T21:59:11.395Z,7.97
2018-04-25T22:01:40.713Z,8.73
2018-04-25T22:04:10.093Z,8.37
2018-04-25T22:06:39.415Z,6.10
2018-04-25T22:09:08.752Z,6.07
2018-04-25T22:11:38.836Z,9.43
2018-04-25T22:14:08.156Z,6.67
2018-04-25T22:16:38.253Z,11.53
2018-04-25T22:19:07.594Z,8.43
2018-04-25T22:21:37.677Z,8.03
2018-04-25T22:24:07.004Z,7.13
2018-04-25T22:26:37.098Z,10.10
2018-04-25T22:29:06.420Z,7.63
2018-04-25T22:31:35.757Z,8.40
2018-04-25T22:34:05.071Z,7.33
2018-04-25T22:36:34.938Z,9.03
2018-04-25T22:39:04.277Z,8.13
2018-04-25T22:41:33.592Z,10.70
2018-04-25T22:44:02.915Z,8.83
2018-04-25T22:46:32.234Z,5.90
2018-04-25T22:49:01.587Z,8.73
2018-04-25T22:51:30.900Z,10.40
2018-04-25T22:54:00.214Z,9.23
2018-04-25T22:56:29.548Z,7.27
2018-04-25T22:58:58.872Z,7.83
2018-04-25T23:01:28.203Z,6.37
2018-04-25T23:03:57.517Z,4.67
2018-04-25T23:06:26.856Z,7.83
2018-04-25T23:08:56.166Z,7.03
2018-04-25T23:11:25.458Z,7.13
2018-04-25T23:13:54.799Z,6.43
2018-04-25T23:16:24.112Z,6.87
2018-04-25T23:18:53.456Z,5.43
2018-04-25T23:21:22.764Z,7.07
2018-04-25T23:23:52.070Z,5.43
2018-04-25T23:26:21.397Z,6.60
2018-04-25T23:28:51.548Z,6.23
2018-04-25T23:31:20.874Z,5.27
2018-04-25T23:33:50.830Z,7.17
2018-04-25T23:36:20.143Z,7.17
2018-04-25T23:38:50.245Z,5.30
2018-04-25T23:41:19.549Z,8.17
2018-04-25T23:43:48.859Z,9.53
2018-04-25T23:46:18.303Z,11.07
2018-04-25T23:48:47.648Z,9.03
2018-04-25T23:51:16.940Z,6.90
2018-04-25T23:53:46.254Z,7.63
2018-04-25T23:56:15.579Z,4.43
2018-04-25T23:58:45.656Z,4.43
